Terminal Aerodrome Forecast
Issued by NWS

Home | Current Version | Previous Version | Graphics & Text | Print | Product List | Glossary On
Versions: 1 2 3 4 5 6 7 8 9 10 11 12 13 14 15 16 17
000
FTUS43 KLSX 211907 AAA
TAFSUS
TAF AMD
KSUS 211907Z 2119/2218 21007KT P6SM SCT025 BKN035
      TEMPO 2119/2121 BKN025
     FM212100 21005KT P6SM BKN035
     FM220900 00000KT 6SM BR SCT030
     FM221400 35004KT P6SM FEW030=

USA.gov is the U.S. government's official web portal to all federal, state and local government web resources and services.